Time;durP1;ratioP1;P1;durP2;ratioP2;P2;SDS_P1;SDS_P2;PMS_P1;PMS_P2;Temp;Humidity;BMP_temperature;BMP_pressure;BME280_temperature;BME280_humidity;BME280_pressure;Samples;Min_cycle;Max_cycle;Signal;HPM_P1;HPM_P2
2022/06/04 00:00:11;;;;;;;;;;;22.60;94.70;22.70;99408.00;;;;340187;28;84170;-82
2022/06/04 00:00:23;;;;;;;;;;;22.60;94.70;22.70;99399.00;;;;341691;28;86360;-82
2022/06/04 00:00:36;;;;;;;;;;;22.60;94.70;22.70;99408.00;;;;342650;28;84479;-83
2022/06/04 00:00:49;;;;;;;;;;;22.60;94.80;22.70;99408.00;;;;341804;28;83694;-82
2022/06/04 00:01:01;;;;;;;;;;;22.70;94.80;22.70;99409.00;;;;344139;28;85590;-82
2022/06/04 00:01:13;;;;;;;;;;;22.70;94.70;22.70;99408.00;;;;344388;28;86511;-82
2022/06/04 00:01:25;;;;;;;;;;;22.60;94.70;22.70;99410.00;;;;342056;28;85671;-82
2022/06/04 00:01:37;;;;;;;;;;;22.60;94.70;22.70;99408.00;;;;344349;28;85867;-82
2022/06/04 00:01:48;;;;;;;;;;;22.60;94.70;22.70;99411.00;;;;344065;28;88118;-82
2022/06/04 00:02:00;;;;;;;;;;;22.70;94.80;22.70;99411.00;;;;344174;28;81624;-82
2022/06/04 00:02:12;;;;;;;;;;;22.60;94.70;22.70;99413.00;;;;344144;28;87825;-83
2022/06/04 00:02:24;;;;;;;;;;;22.70;94.70;22.60;99408.00;;;;342989;28;86054;-82
2022/06/04 00:02:39;;;;;;;;;;;22.60;94.70;22.60;99419.00;;;;342680;28;87465;-82
2022/06/04 00:02:51;;;;;;;;;;;22.70;94.70;22.60;99411.00;;;;344606;28;82548;-83
2022/06/04 00:03:04;;;;;;;;;;;22.70;94.60;22.60;99417.00;;;;344096;28;87495;-82
2022/06/04 00:03:16;;;;;;;;;;;22.70;94.50;22.60;99413.00;;;;343138;28;83029;-83
2022/06/04 00:03:28;;;;;;;;;;;22.60;94.50;22.60;99418.00;;;;344095;28;87520;-83
2022/06/04 00:03:39;;;;;;;;;;;22.60;94.50;22.60;99421.00;;;;344379;28;84497;-82
2022/06/04 00:03:51;;;;;;;;;;;22.60;94.60;22.60;99418.00;;;;342783;28;88397;-82
2022/06/04 00:04:03;;;;;;;;;;;22.60;94.60;22.60;99424.00;;;;342670;28;82583;-82
2022/06/04 00:04:15;;;;;;;;;;;22.60;94.50;22.60;99421.00;;;;341729;28;84582;-82
2022/06/04 00:04:27;;;;;;;;;;;22.60;94.60;22.60;99429.00;;;;342993;28;83513;-82
2022/06/04 00:04:39;;;;;;;;;;;22.60;94.60;22.60;99426.00;;;;344394;28;87814;-83
2022/06/04 00:04:53;;;;;;;;;;;22.60;94.50;22.60;99419.00;;;;342710;28;82305;-82
2022/06/04 00:05:07;;;;;;;;;;;22.60;94.50;22.60;99427.00;;;;343278;28;85598;-82
2022/06/04 00:05:22;;;;;;;;;;;22.60;94.60;22.60;99427.00;;;;340884;28;81919;-83
2022/06/04 00:05:36;;;;;;;;;;;22.60;94.60;22.60;99428.00;;;;341878;28;85341;-83
2022/06/04 00:05:51;;;;;;;;;;;22.60;94.60;22.50;99425.00;;;;342176;28;86195;-82
2022/06/04 00:06:03;;;;;;;;;;;22.60;94.50;22.50;99427.00;;;;341535;28;88418;-82
2022/06/04 00:06:14;;;;;;;;;;;22.60;94.50;22.50;99430.00;;;;340817;28;84847;-82
2022/06/04 00:06:26;;;;;;;;;;;22.60;94.50;22.50;99428.00;;;;341867;28;87491;-82
2022/06/04 00:06:38;;;;;;;;;;;22.60;94.50;22.50;99431.00;;;;342043;28;85381;-82
2022/06/04 00:06:49;;;;;;;;;;;22.60;94.50;22.50;99429.00;;;;344676;28;84630;-82
2022/06/04 00:07:01;;;;;;;;;;;22.60;94.50;22.50;99432.00;;;;343569;28;83548;-82
2022/06/04 00:07:13;;;;;;;;;;;22.60;94.50;22.50;99432.00;;;;340683;28;83270;-82
2022/06/04 00:07:25;;;;;;;;;;;22.60;94.50;22.50;99432.00;;;;341546;28;86443;-82
2022/06/04 00:07:37;;;;;;;;;;;22.60;94.50;22.50;99430.00;;;;343104;28;85587;-82
2022/06/04 00:07:50;;;;;;;;;;;22.50;94.50;22.50;99428.00;;;;344664;28;86420;-82
2022/06/04 00:08:02;;;;;;;;;;;22.60;94.50;22.50;99438.00;;;;343059;28;88451;-83
2022/06/04 00:08:14;;;;;;;;;;;22.50;94.60;22.50;99435.00;;;;342209;28;82807;-83
2022/06/04 00:08:28;;;;;;;;;;;22.60;94.60;22.60;99436.00;;;;343101;28;87025;-82
2022/06/04 00:08:39;;;;;;;;;;;22.50;94.60;22.50;99437.00;;;;342064;28;85076;-82
2022/06/04 00:08:51;;;;;;;;;;;22.60;94.70;22.50;99430.00;;;;340598;28;85154;-83
2022/06/04 00:09:05;;;;;;;;;;;22.60;94.70;22.50;99436.00;;;;342215;28;81152;-82
2022/06/04 00:09:20;;;;;;;;;;;22.50;94.70;22.50;99437.00;;;;341875;28;84919;-82
2022/06/04 00:09:32;;;;;;;;;;;22.60;94.70;22.50;99436.00;;;;340684;28;86607;-82
2022/06/04 00:15:29;;;;;;;;;;;22.50;94.70;22.60;99434.00;;;;340348;28;84583;-82
2022/06/04 00:15:46;;;;;;;;;;;22.50;94.20;22.40;99447.00;;;;338962;28;86521;-83
2022/06/04 00:15:50;;;;;;;;;;;22.50;94.00;22.40;99443.00;;;;340473;28;85605;-82
2022/06/04 00:16:02;;;;;;;;;;;22.50;93.60;22.40;99444.00;;;;338924;28;88984;-83
2022/06/04 00:16:15;;;;;;;;;;;22.50;93.80;22.40;99445.00;;;;339451;28;82942;-82
2022/06/04 00:16:27;;;;;;;;;;;22.40;93.90;22.40;99443.00;;;;341149;28;86025;-82
2022/06/04 00:16:39;;;;;;;;;;;22.40;94.10;22.40;99450.00;;;;341896;28;83951;-82
2022/06/04 00:16:51;;;;;;;;;;;22.40;94.20;22.40;99447.00;;;;340328;28;87882;-82
2022/06/04 00:17:03;;;;;;;;;;;22.40;94.70;22.30;99442.00;;;;343541;28;83252;-82
2022/06/04 00:17:14;;;;;;;;;;;22.40;94.80;22.40;99452.00;;;;340516;28;85437;-82
2022/06/04 00:17:26;;;;;;;;;;;22.40;94.80;22.40;99452.00;;;;341508;28;83506;-82
2022/06/04 00:17:38;;;;;;;;;;;22.40;94.80;22.40;99453.00;;;;340474;28;87726;-82
2022/06/04 00:17:51;;;;;;;;;;;22.40;94.90;22.30;99458.00;;;;342122;28;85376;-82
2022/06/04 00:18:03;;;;;;;;;;;22.40;95.10;22.30;99459.00;;;;337730;28;85373;-82
2022/06/04 00:18:15;;;;;;;;;;;22.40;95.20;22.30;99456.00;;;;340780;28;82971;-82
2022/06/04 00:18:27;;;;;;;;;;;22.40;95.20;22.30;99459.00;;;;339041;28;84929;-82
2022/06/04 00:18:39;;;;;;;;;;;22.40;95.20;22.30;99458.00;;;;339276;28;86530;-83
2022/06/04 00:18:50;;;;;;;;;;;22.40;95.40;22.30;99464.00;;;;340177;28;85668;-82
2022/06/04 00:19:05;;;;;;;;;;;22.30;95.60;22.30;99462.00;;;;340840;28;83505;-82
2022/06/04 00:19:17;;;;;;;;;;;22.40;96.00;22.30;99463.00;;;;337703;28;85499;-82
2022/06/04 00:19:29;;;;;;;;;;;22.40;96.10;22.30;99468.00;;;;341772;28;85708;-82
2022/06/04 00:19:40;;;;;;;;;;;22.40;96.00;22.30;99468.00;;;;341804;28;87561;-82
2022/06/04 00:19:52;;;;;;;;;;;22.40;96.10;22.30;99468.00;;;;342028;28;85336;-82
2022/06/04 00:20:04;;;;;;;;;;;22.40;96.20;22.30;99466.00;;;;339057;28;86288;-82
2022/06/04 00:20:16;;;;;;;;;;;22.30;96.70;22.30;99468.00;;;;342015;28;85833;-82
2022/06/04 00:20:28;;;;;;;;;;;22.40;96.90;22.30;99468.00;;;;341500;28;84481;-82
2022/06/04 00:20:39;;;;;;;;;;;22.30;97.00;22.30;99479.00;;;;340686;28;84592;-82
2022/06/04 00:20:52;;;;;;;;;;;22.30;97.00;22.30;99477.00;;;;340511;28;85177;-82
2022/06/04 00:21:04;;;;;;;;;;;22.30;97.00;22.30;99474.00;;;;342024;28;85727;-82
2022/06/04 00:21:16;;;;;;;;;;;22.30;97.20;22.20;99468.00;;;;340490;28;87099;-82
2022/06/04 00:21:27;;;;;;;;;;;22.30;97.30;22.30;99479.00;;;;339443;28;83825;-82
2022/06/04 00:21:39;;;;;;;;;;;22.30;97.20;22.20;99472.00;;;;341514;28;87585;-82
2022/06/04 00:21:51;;;;;;;;;;;22.30;97.40;22.30;99476.00;;;;340755;28;83416;-83
2022/06/04 00:22:03;;;;;;;;;;;22.30;97.40;22.40;99468.00;;;;337717;28;85636;-82
2022/06/04 00:22:15;;;;;;;;;;;22.30;97.20;22.30;99474.00;;;;340732;28;85532;-82
2022/06/04 00:22:26;;;;;;;;;;;22.30;97.50;22.40;99471.00;;;;342690;28;90522;-82
2022/06/04 00:22:38;;;;;;;;;;;22.30;97.40;22.30;99476.00;;;;343236;28;84806;-82
2022/06/04 00:22:50;;;;;;;;;;;22.30;97.50;22.30;99477.00;;;;341795;28;85204;-82
2022/06/04 00:23:04;;;;;;;;;;;22.30;97.50;22.30;99474.00;;;;339377;28;82777;-82
2022/06/04 00:23:16;;;;;;;;;;;22.30;97.50;22.30;99470.00;;;;340471;28;85730;-82
2022/06/04 00:23:28;;;;;;;;;;;22.30;97.40;22.30;99472.00;;;;339215;28;83603;-82
2022/06/04 00:23:39;;;;;;;;;;;22.30;97.40;22.30;99480.00;;;;341936;28;83276;-82
2022/06/04 00:23:51;;;;;;;;;;;22.30;97.40;22.30;99475.00;;;;340712;28;83825;-82
2022/06/04 00:24:03;;;;;;;;;;;22.30;97.40;22.40;99495.00;;;;340364;28;85891;-82
2022/06/04 00:24:15;;;;;;;;;;;22.30;97.40;22.40;99482.00;;;;340781;28;82556;-82
2022/06/04 00:24:27;;;;;;;;;;;22.30;97.30;22.40;99485.00;;;;341693;28;87697;-82
2022/06/04 00:24:40;;;;;;;;;;;22.30;97.20;22.40;99492.00;;;;339225;28;86305;-82
2022/06/04 00:24:53;;;;;;;;;;;22.40;97.30;22.40;99488.00;;;;341819;28;85642;-82
2022/06/04 00:25:07;;;;;;;;;;;22.40;97.30;22.40;99493.00;;;;338878;28;84730;-82
2022/06/04 00:25:19;;;;;;;;;;;22.40;97.30;22.50;99488.00;;;;341375;28;86991;-82
2022/06/04 00:25:31;;;;;;;;;;;22.30;97.20;22.50;99491.00;;;;341533;28;84757;-82
2022/06/04 00:25:47;;;;;;;;;;;22.40;97.20;22.40;99486.00;;;;337731;28;88679;-83
2022/06/04 00:25:59;;;;;;;;;;;22.40;97.40;22.40;99497.00;;;;340568;28;86349;-83
2022/06/04 00:26:13;;;;;;;;;;;22.30;97.30;22.40;99489.00;;;;341818;28;85727;-82
2022/06/04 00:26:25;;;;;;;;;;;22.40;97.40;22.30;99492.00;;;;339435;28;84895;-82
2022/06/04 00:26:36;;;;;;;;;;;22.40;97.40;22.40;99494.00;;;;341791;28;85924;-82
2022/06/04 00:26:48;;;;;;;;;;;22.40;97.30;22.50;99489.00;;;;340827;28;82516;-82
2022/06/04 00:27:00;;;;;;;;;;;22.40;97.40;22.40;99496.00;;;;339114;28;85531;-82
2022/06/04 00:27:20;;;;;;;;;;;22.40;97.40;22.30;99498.00;;;;339434;28;86202;-82
2022/06/04 00:27:31;;;;;;;;;;;22.40;97.40;22.40;99489.00;;;;341847;28;84706;-82
2022/06/04 00:27:43;;;;;;;;;;;22.30;97.40;22.30;99495.00;;;;340703;28;86341;-82
2022/06/04 00:27:59;;;;;;;;;;;22.40;97.40;22.20;99496.00;;;;339168;28;87242;-82
2022/06/04 00:28:11;;;;;;;;;;;22.40;97.50;22.20;99494.00;;;;340645;28;85450;-82
2022/06/04 00:28:23;;;;;;;;;;;22.40;97.50;22.20;99489.00;;;;341554;28;85478;-82
2022/06/04 00:28:35;;;;;;;;;;;22.30;97.50;22.30;99493.00;;;;344086;28;84870;-82
2022/06/04 00:28:47;;;;;;;;;;;22.30;97.40;22.20;99495.00;;;;340148;28;88779;-82
2022/06/04 00:28:59;;;;;;;;;;;22.30;97.40;22.20;99491.00;;;;337993;28;86366;-82
2022/06/04 00:29:12;;;;;;;;;;;22.30;97.40;22.30;99492.00;;;;340590;28;87778;-82
2022/06/04 00:29:24;;;;;;;;;;;22.30;97.50;22.30;99489.00;;;;341992;28;82330;-82
2022/06/04 00:29:35;;;;;;;;;;;22.30;97.40;22.30;99480.00;;;;340548;28;85765;-82
2022/06/04 00:29:48;;;;;;;;;;;22.30;97.40;22.40;99481.00;;;;339477;28;82375;-83
2022/06/04 00:30:01;;;;;;;;;;;22.30;97.40;22.30;99477.00;;;;344425;28;85038;-82
2022/06/04 00:30:12;;;;;;;;;;;22.30;97.40;22.30;99476.00;;;;342119;28;83607;-83
2022/06/04 00:30:24;;;;;;;;;;;22.30;97.30;22.40;99475.00;;;;339217;28;85332;-82
2022/06/04 00:30:37;;;;;;;;;;;22.30;97.30;22.40;99483.00;;;;341946;28;85495;-82
2022/06/04 00:30:49;;;;;;;;;;;22.30;97.30;22.40;99476.00;;;;343140;28;88027;-82
2022/06/04 00:31:00;;;;;;;;;;;22.30;97.20;22.40;99472.00;;;;340549;28;82338;-82
2022/06/04 00:31:14;;;;;;;;;;;22.30;97.20;22.40;99475.00;;;;341836;28;85694;-82
2022/06/04 00:31:26;;;;;;;;;;;22.30;97.10;22.40;99467.00;;;;342934;28;82872;-82
2022/06/04 00:31:37;;;;;;;;;;;22.30;97.00;22.40;99468.00;;;;340237;28;88741;-82
2022/06/04 00:31:50;;;;;;;;;;;22.30;97.00;22.40;99466.00;;;;342039;28;85705;-82
2022/06/04 00:32:02;;;;;;;;;;;22.40;97.10;22.40;99466.00;;;;341457;28;88843;-82
2022/06/04 00:32:14;;;;;;;;;;;22.40;97.00;22.40;99462.00;;;;338112;28;82520;-82
2022/06/04 00:32:26;;;;;;;;;;;22.30;97.00;22.40;99468.00;;;;341261;28;85491;-82
2022/06/04 00:32:38;;;;;;;;;;;22.30;97.00;22.40;99466.00;;;;342018;28;83938;-83
2022/06/04 00:32:49;;;;;;;;;;;22.30;97.00;22.40;99466.00;;;;341760;28;87871;-82
2022/06/04 00:33:01;;;;;;;;;;;22.30;97.00;22.40;99464.00;;;;341880;28;84554;-82
2022/06/04 00:33:13;;;;;;;;;;;22.40;97.00;22.40;99450.00;;;;341858;28;85843;-82
2022/06/04 00:33:25;;;;;;;;;;;22.30;96.90;22.40;99459.00;;;;342052;28;83429;-82
2022/06/04 00:33:37;;;;;;;;;;;22.40;96.80;22.30;99451.00;;;;341757;28;87047;-82
2022/06/04 00:33:48;;;;;;;;;;;22.30;96.80;22.40;99461.00;;;;343559;28;82313;-82
2022/06/04 00:34:00;;;;;;;;;;;22.30;96.80;22.40;99456.00;;;;341594;28;87673;-82
2022/06/04 00:34:12;;;;;;;;;;;22.30;96.70;22.40;99463.00;;;;343409;28;85613;-82
2022/06/04 00:34:24;;;;;;;;;;;22.30;96.60;22.40;99459.00;;;;339909;28;84509;-82
2022/06/04 00:34:35;;;;;;;;;;;22.40;96.70;22.40;99455.00;;;;338493;28;82922;-82
2022/06/04 00:34:47;;;;;;;;;;;22.30;96.60;22.40;99458.00;;;;343087;28;87353;-82
2022/06/04 00:35:03;;;;;;;;;;;22.30;96.70;22.40;99465.00;;;;340638;28;85588;-82
2022/06/04 00:35:21;;;;;;;;;;;22.40;96.60;22.20;99457.00;;;;339420;28;85816;-82
2022/06/04 00:35:34;;;;;;;;;;;22.30;96.50;22.10;99457.00;;;;343467;28;83333;-82
2022/06/04 00:35:48;;;;;;;;;;;22.30;96.50;22.20;99450.00;;;;340466;28;85752;-82
2022/06/04 00:36:00;;;;;;;;;;;22.30;96.60;22.20;99446.00;;;;337896;28;85899;-82
2022/06/04 00:36:12;;;;;;;;;;;22.30;96.70;22.20;99454.00;;;;340468;28;85898;-82
2022/06/04 00:36:23;;;;;;;;;;;22.20;96.70;22.20;99449.00;;;;340719;28;86008;-82
2022/06/04 00:36:37;;;;;;;;;;;22.20;96.60;22.20;99448.00;;;;340387;28;86691;-82
2022/06/04 00:36:49;;;;;;;;;;;22.20;96.60;22.30;99445.00;;;;340677;28;82417;-82
2022/06/04 00:37:01;;;;;;;;;;;22.20;96.60;22.30;99448.00;;;;339069;28;85715;-82
2022/06/04 00:37:12;;;;;;;;;;;22.20;96.60;22.30;99441.00;;;;340876;28;82698;-82
2022/06/04 00:37:24;;;;;;;;;;;22.20;96.70;22.30;99444.00;;;;341609;28;85906;-82
2022/06/04 00:37:36;;;;;;;;;;;22.20;96.70;22.30;99441.00;;;;341170;28;86408;-82
2022/06/04 00:37:51;;;;;;;;;;;22.20;96.60;22.30;99437.00;;;;340439;28;86700;-82
2022/06/04 00:38:06;;;;;;;;;;;22.20;96.60;22.30;99431.00;;;;340366;28;86031;-82
2022/06/04 00:38:18;;;;;;;;;;;22.30;96.60;22.20;99436.00;;;;340388;28;84782;-82
2022/06/04 00:38:31;;;;;;;;;;;22.20;96.60;22.30;99435.00;;;;342038;28;83664;-82
2022/06/04 00:38:45;;;;;;;;;;;22.30;96.60;22.20;99442.00;;;;343133;28;85943;-82
2022/06/04 00:38:57;;;;;;;;;;;22.20;96.60;22.30;99435.00;;;;340802;28;83697;-82
2022/06/04 00:39:09;;;;;;;;;;;22.20;96.50;22.20;99442.00;;;;339113;28;88458;-82
2022/06/04 00:39:21;;;;;;;;;;;22.20;96.50;22.10;99435.00;;;;343338;28;82281;-82
2022/06/04 00:39:33;;;;;;;;;;;22.20;96.50;22.20;99436.00;;;;341731;28;88480;-82
2022/06/04 00:39:46;;;;;;;;;;;22.20;96.50;22.20;99439.00;;;;340738;28;83863;-82
2022/06/04 00:39:58;;;;;;;;;;;22.20;96.40;22.20;99436.00;;;;340444;28;86005;-82
2022/06/04 00:40:12;;;;;;;;;;;22.20;96.50;22.30;99432.00;;;;340785;28;83272;-82
2022/06/04 00:40:27;;;;;;;;;;;22.20;96.50;22.20;99432.00;;;;340838;28;88591;-82
2022/06/04 00:40:56;;;;;;;;;;;22.20;96.50;22.20;99433.00;;;;341753;28;83714;-82
2022/06/04 00:41:24;;;;;;;;;;;22.20;96.60;22.20;99437.00;;;;341388;28;86514;-82
2022/06/04 00:41:59;;;;;;;;;;;22.20;96.60;22.20;99441.00;;;;341826;28;85229;-82
2022/06/04 00:42:14;;;;;;;;;;;22.20;96.60;22.20;99440.00;;;;339995;28;87959;-82
2022/06/04 00:42:26;;;;;;;;;;;22.20;96.50;22.20;99441.00;;;;340660;28;85463;-82
2022/06/04 00:42:38;;;;;;;;;;;22.20;96.50;22.30;99442.00;;;;339327;28;88370;-82
2022/06/04 00:42:50;;;;;;;;;;;22.20;96.60;22.30;99443.00;;;;342168;28;83433;-82
2022/06/04 00:43:01;;;;;;;;;;;22.20;96.60;22.30;99444.00;;;;341774;28;84817;-82
2022/06/04 00:43:13;;;;;;;;;;;22.20;96.60;22.30;99446.00;;;;340753;28;83608;-82
2022/06/04 00:43:25;;;;;;;;;;;22.20;96.60;22.30;99442.00;;;;339878;28;83625;-83
2022/06/04 00:44:03;;;;;;;;;;;22.20;96.60;22.20;99450.00;;;;341201;28;85352;-83
2022/06/04 00:44:14;;;;;;;;;;;22.20;96.60;22.30;99444.00;;;;341792;28;85583;-82
2022/06/04 00:44:32;;;;;;;;;;;22.20;96.60;22.20;99447.00;;;;341466;28;83414;-82
2022/06/04 00:45:08;;;;;;;;;;;22.20;96.50;22.30;99448.00;;;;340289;28;87094;-82
2022/06/04 00:45:20;;;;;;;;;;;22.20;96.50;22.30;99450.00;;;;340751;28;82682;-82
2022/06/04 00:45:32;;;;;;;;;;;22.20;96.60;22.30;99450.00;;;;340288;28;87832;-82
2022/06/04 00:46:15;;;;;;;;;;;22.20;96.60;22.30;99454.00;;;;340787;28;82981;-82
2022/06/04 00:46:42;;;;;;;;;;;22.30;96.60;22.30;99449.00;;;;340208;28;88370;-83
2022/06/04 00:47:05;;;;;;;;;;;22.30;96.60;22.30;99442.00;;;;343375;28;85993;-82
2022/06/04 00:47:25;;;;;;;;;;;22.30;96.60;22.30;99451.00;;;;342768;28;85592;-82
2022/06/04 00:47:37;;;;;;;;;;;22.20;96.60;22.20;99443.00;;;;343504;28;82326;-82
2022/06/04 00:47:49;;;;;;;;;;;22.20;96.60;22.20;99454.00;;;;343188;28;85721;-83
2022/06/04 00:48:05;;;;;;;;;;;22.20;96.70;22.20;99446.00;;;;343395;28;81793;-82
2022/06/04 00:48:20;;;;;;;;;;;22.20;96.80;22.30;99448.00;;;;340408;28;87462;-82
2022/06/04 00:48:32;;;;;;;;;;;22.20;96.70;22.30;99442.00;;;;340988;28;86466;-82
2022/06/04 00:48:44;;;;;;;;;;;22.20;96.80;22.20;99442.00;;;;341898;28;86575;-82
2022/06/04 00:48:55;;;;;;;;;;;22.20;96.80;22.20;99442.00;;;;342118;28;83690;-82
2022/06/04 00:49:14;;;;;;;;;;;22.20;96.80;22.20;99445.00;;;;341873;28;85228;-82
2022/06/04 00:49:26;;;;;;;;;;;22.30;96.80;22.20;99435.00;;;;343581;28;83506;-82
2022/06/04 00:49:44;;;;;;;;;;;22.20;96.80;22.20;99439.00;;;;341916;28;85548;-82
2022/06/04 00:49:55;;;;;;;;;;;22.20;96.80;22.20;99432.00;;;;342996;28;86343;-82
2022/06/04 00:50:09;;;;;;;;;;;22.20;96.80;22.10;99436.00;;;;344395;28;85603;-82
2022/06/04 00:50:21;;;;;;;;;;;22.20;96.80;22.00;99437.00;;;;343471;28;84869;-82
2022/06/04 00:50:34;;;;;;;;;;;22.20;96.80;22.00;99443.00;;;;341807;28;85573;-82
2022/06/04 00:50:46;;;;;;;;;;;22.20;96.90;21.90;99435.00;;;;343438;28;83139;-82
2022/06/04 00:50:58;;;;;;;;;;;22.10;96.90;22.00;99431.00;;;;341909;28;85861;-82
2022/06/04 00:51:09;;;;;;;;;;;22.10;96.80;22.00;99434.00;;;;343533;28;83363;-83
2022/06/04 00:51:23;;;;;;;;;;;22.10;96.90;21.90;99427.00;;;;343076;28;87581;-82
2022/06/04 00:51:34;;;;;;;;;;;22.10;96.90;21.90;99432.00;;;;342156;28;83781;-82
2022/06/04 00:51:48;;;;;;;;;;;22.00;97.00;21.90;99421.00;;;;341677;28;87903;-82
2022/06/04 00:52:00;;;;;;;;;;;22.10;97.00;21.90;99419.00;;;;343284;28;84581;-82
2022/06/04 00:52:12;;;;;;;;;;;22.00;97.00;22.00;99423.00;;;;341722;28;88713;-82
2022/06/04 00:52:24;;;;;;;;;;;22.10;97.10;22.00;99415.00;;;;341243;28;85889;-82
2022/06/04 00:52:36;;;;;;;;;;;22.00;97.00;21.90;99419.00;;;;341529;28;87641;-82
2022/06/04 00:52:49;;;;;;;;;;;22.00;97.20;21.90;99421.00;;;;343437;28;86503;-82
2022/06/04 00:53:02;;;;;;;;;;;22.00;97.10;22.00;99417.00;;;;341774;28;86652;-82
2022/06/04 00:53:14;;;;;;;;;;;22.00;97.10;22.00;99415.00;;;;344752;28;86438;-82
2022/06/04 00:53:26;;;;;;;;;;;22.00;97.10;22.00;99417.00;;;;342170;28;89064;-82
2022/06/04 00:53:38;;;;;;;;;;;22.00;97.10;22.00;99412.00;;;;343496;28;83152;-82
2022/06/04 00:53:50;;;;;;;;;;;22.00;97.00;22.00;99417.00;;;;341892;28;85624;-82
2022/06/04 00:54:02;;;;;;;;;;;22.00;97.20;22.00;99410.00;;;;343389;28;83699;-82
2022/06/04 00:54:14;;;;;;;;;;;22.00;97.20;22.00;99415.00;;;;343260;28;85413;-82
2022/06/04 00:54:26;;;;;;;;;;;22.00;97.30;22.00;99407.00;;;;343364;28;83679;-82
2022/06/04 00:54:38;;;;;;;;;;;22.00;97.40;22.00;99411.00;;;;343013;28;87822;-83
2022/06/04 00:54:53;;;;;;;;;;;22.00;97.30;22.00;99413.00;;;;343409;28;85133;-82
2022/06/04 00:55:05;;;;;;;;;;;22.00;97.30;22.00;99421.00;;;;343202;28;85550;-83
2022/06/04 00:55:17;;;;;;;;;;;22.00;97.40;21.90;99410.00;;;;343180;28;83748;-83
2022/06/04 00:55:33;;;;;;;;;;;22.00;97.40;21.90;99410.00;;;;344299;28;86799;-83
2022/06/04 00:56:05;;;;;;;;;;;21.90;97.40;22.00;99414.00;;;;340792;28;83799;-82
2022/06/04 00:56:41;;;;;;;;;;;21.90;97.40;22.00;99413.00;;;;341916;28;84464;-82
2022/06/04 00:57:18;;;;;;;;;;;21.90;97.40;22.00;99408.00;;;;343421;28;85742;-83
2022/06/04 00:57:43;;;;;;;;;;;21.90;97.50;21.90;99411.00;;;;341808;28;87577;-82
2022/06/04 00:58:03;;;;;;;;;;;21.90;97.50;21.90;99407.00;;;;342042;28;84815;-82
2022/06/04 00:58:14;;;;;;;;;;;21.90;97.50;21.70;99411.00;;;;343247;28;85442;-82
2022/06/04 00:58:45;;;;;;;;;;;21.90;97.70;21.80;99407.00;;;;344187;28;81201;-82
2022/06/04 00:59:08;;;;;;;;;;;21.90;97.60;21.80;99412.00;;;;342937;28;86077;-82
2022/06/04 01:00:00;;;;;;;;;;;21.90;97.70;21.80;99409.00;;;;343220;28;83273;-83
2022/06/04 01:00:24;;;;;;;;;;;21.90;97.70;21.90;99403.00;;;;342513;28;86088;-82
2022/06/04 01:00:42;;;;;;;;;;;21.90;97.70;22.00;99400.00;;;;346116;28;85962;-82
2022/06/04 01:00:56;;;;;;;;;;;21.90;97.70;21.90;99396.00;;;;343265;28;85452;-83
2022/06/04 01:01:21;;;;;;;;;;;21.90;97.80;22.00;99399.00;;;;343409;28;85254;-83
2022/06/04 01:01:52;;;;;;;;;;;21.90;97.70;21.70;99399.00;;;;344343;28;85687;-82
2022/06/04 01:02:27;;;;;;;;;;;21.90;97.70;21.90;99399.00;;;;341913;28;85213;-82
2022/06/04 01:02:56;;;;;;;;;;;21.80;97.70;21.80;99398.00;;;;340350;28;88620;-83
2022/06/04 01:03:10;;;;;;;;;;;21.80;97.70;21.60;99401.00;;;;342014;28;86891;-82
2022/06/04 01:03:52;;;;;;;;;;;21.80;97.80;21.70;99408.00;;;;341684;28;87963;-82
2022/06/04 01:04:47;;;;;;;;;;;21.80;97.80;21.80;99404.00;;;;339211;28;86380;-83
2022/06/04 01:05:06;;;;;;;;;;;21.80;97.70;21.80;99399.00;;;;340711;28;85651;-82
2022/06/04 01:05:29;;;;;;;;;;;21.80;97.70;21.80;99398.00;;;;341989;28;84326;-83
2022/06/04 01:05:41;;;;;;;;;;;21.80;97.60;21.80;99406.00;;;;343256;28;84537;-82
2022/06/04 01:06:02;;;;;;;;;;;21.80;97.60;21.80;99409.00;;;;343531;28;83474;-83
2022/06/04 01:06:36;;;;;;;;;;;21.80;97.60;21.80;99410.00;;;;344524;28;87691;-82
2022/06/04 01:06:51;;;;;;;;;;;21.80;97.50;21.70;99416.00;;;;343489;28;82648;-83
2022/06/04 01:07:27;;;;;;;;;;;21.80;97.50;21.70;99412.00;;;;343081;28;87358;-82
2022/06/04 01:08:07;;;;;;;;;;;21.80;97.60;21.70;99411.00;;;;344338;28;85574;-82
2022/06/04 01:08:51;;;;;;;;;;;21.70;97.60;21.50;99428.00;;;;341895;28;85645;-82
2022/06/04 01:09:31;;;;;;;;;;;21.70;97.60;21.60;99425.00;;;;342065;28;84024;-82
2022/06/04 01:10:13;;;;;;;;;;;21.70;97.70;21.70;99425.00;;;;340472;28;85553;-82
2022/06/04 01:10:52;;;;;;;;;;;21.60;97.80;21.50;99422.00;;;;339985;28;86352;-82
2022/06/04 01:11:27;;;;;;;;;;;21.60;97.80;21.60;99424.00;;;;343137;28;88605;-83
2022/06/04 01:12:09;;;;;;;;;;;21.60;97.90;21.50;99414.00;;;;344733;28;86280;-82
2022/06/04 01:12:27;;;;;;;;;;;21.60;97.90;21.60;99414.00;;;;339203;28;84782;-82
2022/06/04 01:13:16;;;;;;;;;;;21.60;97.90;21.50;99423.00;;;;343392;28;82757;-83
2022/06/04 01:13:51;;;;;;;;;;;21.60;98.10;21.30;99420.00;;;;338398;28;85554;-82
2022/06/04 01:14:03;;;;;;;;;;;21.60;98.10;21.40;99414.00;;;;336582;28;85421;-82
2022/06/04 01:14:23;;;;;;;;;;;21.50;98.10;21.40;99418.00;;;;336583;28;86479;-82
2022/06/04 01:14:35;;;;;;;;;;;21.50;98.20;21.40;99424.00;;;;337897;28;85316;-83
2022/06/04 01:14:52;;;;;;;;;;;21.50;98.20;21.40;99421.00;;;;339070;28;84391;-82
2022/06/04 01:15:22;;;;;;;;;;;21.50;98.20;21.40;99420.00;;;;337923;28;85307;-83
2022/06/04 01:15:57;;;;;;;;;;;21.40;98.20;21.40;99417.00;;;;337250;28;88583;-82
2022/06/04 01:16:22;;;;;;;;;;;21.40;98.30;21.40;99422.00;;;;337401;28;85952;-82
2022/06/04 01:17:01;;;;;;;;;;;21.40;98.30;21.30;99428.00;;;;339214;28;86070;-82
2022/06/04 01:17:23;;;;;;;;;;;21.40;98.50;21.30;99424.00;;;;340721;28;84602;-82
2022/06/04 01:17:46;;;;;;;;;;;21.40;98.60;21.40;99421.00;;;;338199;28;85670;-82
2022/06/04 01:18:00;;;;;;;;;;;21.40;98.60;21.30;99416.00;;;;337927;28;86225;-82
2022/06/04 01:18:15;;;;;;;;;;;21.40;98.70;21.30;99421.00;;;;337477;28;88067;-82
2022/06/04 01:18:41;;;;;;;;;;;21.30;98.70;21.30;99419.00;;;;335064;29;85462;-82
2022/06/04 01:19:03;;;;;;;;;;;21.30;98.60;21.40;99419.00;;;;335165;29;88468;-82
2022/06/04 01:19:23;;;;;;;;;;;21.30;98.60;21.40;99416.00;;;;337916;28;84856;-82
2022/06/04 01:19:40;;;;;;;;;;;21.30;98.70;21.40;99420.00;;;;338291;28;87997;-82
2022/06/04 01:19:59;;;;;;;;;;;21.30;98.70;21.40;99419.00;;;;338838;28;82033;-82
2022/06/04 01:20:19;;;;;;;;;;;21.30;98.70;21.40;99419.00;;;;339194;28;84740;-82
2022/06/04 01:20:56;;;;;;;;;;;21.30;98.60;21.40;99422.00;;;;337998;28;84886;-82
2022/06/04 01:21:26;;;;;;;;;;;21.40;98.60;21.00;99420.00;;;;337786;28;85900;-82
2022/06/04 01:22:15;;;;;;;;;;;21.30;98.70;21.30;99424.00;;;;339032;28;86430;-82
2022/06/04 01:22:46;;;;;;;;;;;21.30;98.80;21.40;99426.00;;;;338618;28;85256;-82
2022/06/04 01:23:04;;;;;;;;;;;21.30;98.90;21.30;99423.00;;;;339155;28;85322;-82
2022/06/04 01:23:53;;;;;;;;;;;21.30;98.90;21.40;99422.00;;;;339122;28;85902;-82
2022/06/04 01:24:24;;;;;;;;;;;21.30;98.80;21.40;99424.00;;;;341962;28;81815;-82
2022/06/04 01:25:03;;;;;;;;;;;21.30;98.90;21.30;99426.00;;;;338903;28;87593;-82
2022/06/04 01:25:37;;;;;;;;;;;21.30;98.80;21.40;99418.00;;;;337996;28;85436;-82
2022/06/04 01:26:08;;;;;;;;;;;21.30;98.90;21.40;99423.00;;;;337683;28;85621;-83
2022/06/04 01:26:49;;;;;;;;;;;21.30;99.00;21.30;99416.00;;;;338849;28;84893;-82
2022/06/04 01:27:11;;;;;;;;;;;21.30;99.00;21.40;99420.00;;;;336502;28;84500;-82
2022/06/04 01:27:28;;;;;;;;;;;21.30;98.90;21.40;99416.00;;;;337882;28;86589;-82
2022/06/04 01:27:52;;;;;;;;;;;21.30;98.80;21.40;99421.00;;;;337748;28;88560;-82
2022/06/04 01:28:08;;;;;;;;;;;21.30;98.80;21.20;99417.00;;;;336657;28;84715;-82
2022/06/04 01:28:20;;;;;;;;;;;21.30;98.90;21.30;99417.00;;;;336261;28;88211;-82
2022/06/04 01:28:31;;;;;;;;;;;21.30;98.80;21.40;99409.00;;;;335527;28;83398;-82